createdAt,value
2018-09-27T00:00:00.784Z,2.23
2018-09-27T00:02:30.288Z,1.60
2018-09-27T00:04:59.884Z,1.60
2018-09-27T00:07:29.649Z,1.30
2018-09-27T00:09:58.830Z,1.43
2018-09-27T00:12:27.982Z,1.50
2018-09-27T00:14:57.486Z,2.10
2018-09-27T00:17:26.815Z,1.30
2018-09-27T00:19:56.067Z,1.50
2018-09-27T00:22:25.435Z,1.50
2018-09-27T00:24:54.796Z,2.00
2018-09-27T00:27:24.212Z,1.47
2018-09-27T00:29:53.698Z,3.70
2018-09-27T00:32:22.840Z,4.17
2018-09-27T00:34:52.236Z,4.87
2018-09-27T00:37:21.580Z,3.20
2018-09-27T00:39:50.816Z,2.07
2018-09-27T00:42:20.456Z,1.50
2018-09-27T00:44:49.894Z,1.43
2018-09-27T00:47:18.989Z,1.30
2018-09-27T00:49:48.375Z,1.43
2018-09-27T00:52:17.653Z,1.40
2018-09-27T00:54:46.885Z,1.30
2018-09-27T00:57:16.288Z,1.77
2018-09-27T00:59:46.048Z,1.23
2018-09-27T01:02:15.815Z,1.43
2018-09-27T01:04:45.135Z,1.50
2018-09-27T01:07:14.498Z,1.60
2018-09-27T01:09:44.187Z,1.73
2018-09-27T01:12:13.739Z,1.50
2018-09-27T01:14:43.120Z,2.10
2018-09-27T01:17:12.216Z,1.70
2018-09-27T01:19:41.700Z,1.77
2018-09-27T01:22:11.392Z,2.17
2018-09-27T01:24:40.631Z,1.53
2018-09-27T01:27:09.935Z,1.50
2018-09-27T01:29:39.160Z,1.43
2018-09-27T01:32:08.460Z,1.33
2018-09-27T01:34:37.392Z,1.40
2018-09-27T01:37:06.881Z,1.40
2018-09-27T01:39:35.908Z,1.30
2018-09-27T01:42:05.243Z,1.30
2018-09-27T01:44:34.953Z,1.30
2018-09-27T01:47:04.224Z,1.40
2018-09-27T01:49:34.302Z,1.57
2018-09-27T01:52:03.492Z,1.60
2018-09-27T01:54:32.595Z,1.17
2018-09-27T01:57:01.812Z,1.80
2018-09-27T01:59:31.281Z,1.40
2018-09-27T02:02:00.720Z,1.30
2018-09-27T02:04:29.937Z,1.07
2018-09-27T02:06:59.284Z,1.00
2018-09-27T02:09:28.872Z,1.40
2018-09-27T02:11:58.244Z,1.20
2018-09-27T02:14:28.740Z,1.60
2018-09-27T02:16:58.033Z,1.30
2018-09-27T02:19:27.348Z,1.27
2018-09-27T02:21:56.604Z,1.40
2018-09-27T02:24:26.576Z,1.37
2018-09-27T02:26:55.925Z,1.30
2018-09-27T02:29:25.375Z,1.30
2018-09-27T02:31:54.759Z,1.30
2018-09-27T02:34:24.435Z,1.33
2018-09-27T02:36:53.717Z,1.50
2018-09-27T02:39:22.915Z,1.27
2018-09-27T02:41:52.239Z,1.93
2018-09-27T02:44:21.848Z,4.50
2018-09-27T02:46:50.893Z,2.30
2018-09-27T02:49:20.188Z,5.47
2018-09-27T02:51:49.485Z,4.33
2018-09-27T02:54:18.760Z,5.67
2018-09-27T02:56:48.281Z,9.17
2018-09-27T02:59:17.803Z,2.40
2018-09-27T03:01:46.956Z,1.80
2018-09-27T03:04:16.402Z,1.57
2018-09-27T03:06:45.921Z,1.60
2018-09-27T03:09:15.175Z,1.67
2018-09-27T03:11:44.412Z,1.80
2018-09-27T03:14:13.888Z,1.70
2018-09-27T03:16:43.298Z,1.93
2018-09-27T03:19:12.400Z,1.57
2018-09-27T03:21:41.659Z,1.70
2018-09-27T03:24:11.220Z,1.63
2018-09-27T03:26:40.361Z,2.00
2018-09-27T03:29:09.765Z,1.60
2018-09-27T03:31:39.230Z,1.80
2018-09-27T03:34:08.649Z,2.20
2018-09-27T03:36:38.038Z,2.27
2018-09-27T03:39:08.596Z,2.70
2018-09-27T03:41:37.569Z,2.27
2018-09-27T03:44:07.196Z,2.10
2018-09-27T03:46:36.756Z,2.10
2018-09-27T03:49:06.171Z,1.73
2018-09-27T03:51:35.273Z,2.17
2018-09-27T03:54:04.565Z,1.97
2018-09-27T03:56:33.846Z,1.90
2018-09-27T03:59:03.897Z,1.60
2018-09-27T04:01:33.771Z,1.77
2018-09-27T04:04:03.108Z,2.30
2018-09-27T04:06:32.421Z,1.70
2018-09-27T04:09:01.767Z,1.70
2018-09-27T04:11:30.962Z,1.50
2018-09-27T04:14:00.484Z,1.77
2018-09-27T04:16:29.744Z,1.40
2018-09-27T04:18:59.209Z,1.60
2018-09-27T04:21:28.489Z,1.90
2018-09-27T04:23:57.921Z,1.90
2018-09-27T04:26:27.348Z,1.93
2018-09-27T04:28:56.668Z,1.80
2018-09-27T04:31:25.924Z,1.93
2018-09-27T04:33:55.282Z,1.57
2018-09-27T04:36:24.752Z,2.10
2018-09-27T04:38:53.850Z,2.30
2018-09-27T04:41:23.434Z,2.10
2018-09-27T04:43:53.005Z,1.95
2018-09-27T04:46:22.247Z,2.00
2018-09-27T04:48:51.874Z,2.30
2018-09-27T04:51:21.429Z,2.27
2018-09-27T04:53:50.884Z,2.40
2018-09-27T04:56:20.177Z,2.33
2018-09-27T04:58:49.685Z,3.40
2018-09-27T05:01:18.954Z,2.83
2018-09-27T05:03:48.086Z,2.50
2018-09-27T05:06:17.889Z,2.40
2018-09-27T05:08:47.361Z,1.90
2018-09-27T05:11:16.772Z,2.20
2018-09-27T05:13:46.579Z,2.00
2018-09-27T05:16:16.143Z,2.20
2018-09-27T05:18:45.680Z,2.40
2018-09-27T05:21:15.180Z,1.90
2018-09-27T05:23:44.344Z,2.10
2018-09-27T05:26:13.820Z,2.23
2018-09-27T05:28:43.422Z,2.60
2018-09-27T05:31:13.008Z,3.10
2018-09-27T05:33:42.448Z,2.63
2018-09-27T05:36:12.028Z,4.93
2018-09-27T05:38:41.621Z,5.13
2018-09-27T05:41:10.995Z,4.23
2018-09-27T05:43:40.360Z,4.23
2018-09-27T05:46:09.989Z,3.90
2018-09-27T05:48:39.633Z,4.30
2018-09-27T05:51:09.216Z,6.60
2018-09-27T05:53:38.976Z,3.57
2018-09-27T05:56:08.172Z,3.10
2018-09-27T05:58:38.113Z,2.30
2018-09-27T06:01:07.589Z,4.10
2018-09-27T06:03:36.847Z,2.70
2018-09-27T06:06:06.168Z,4.40
2018-09-27T06:08:35.604Z,2.53
2018-09-27T06:11:04.859Z,3.37
2018-09-27T06:13:34.290Z,2.10
2018-09-27T06:16:03.632Z,2.27
2018-09-27T06:18:32.943Z,2.37
2018-09-27T06:21:03.419Z,2.57
2018-09-27T06:23:32.889Z,2.40
2018-09-27T06:26:02.368Z,3.03
2018-09-27T06:28:31.955Z,2.10
2018-09-27T06:31:01.265Z,2.33
2018-09-27T06:33:30.758Z,2.10
2018-09-27T06:36:00.225Z,1.97
2018-09-27T06:38:29.867Z,2.13
2018-09-27T06:40:59.068Z,2.00
2018-09-27T06:43:28.579Z,1.70
2018-09-27T06:45:57.879Z,2.03
2018-09-27T06:48:27.309Z,1.90
2018-09-27T06:50:56.660Z,5.47
2018-09-27T06:53:26.150Z,2.77
2018-09-27T06:55:55.660Z,2.30
2018-09-27T06:58:24.863Z,2.37
2018-09-27T07:00:54.173Z,2.03
2018-09-27T07:03:23.498Z,2.63
2018-09-27T07:05:52.957Z,2.17
2018-09-27T07:08:22.519Z,2.70
2018-09-27T07:10:51.525Z,3.50
2018-09-27T07:13:21.001Z,5.63
2018-09-27T07:15:50.544Z,5.80
2018-09-27T07:18:19.816Z,6.50
2018-09-27T07:20:49.093Z,3.83
2018-09-27T07:23:18.375Z,5.30
2018-09-27T07:25:47.981Z,5.00
2018-09-27T07:28:17.408Z,4.37
2018-09-27T07:30:46.722Z,3.93
2018-09-27T07:33:15.856Z,2.80
2018-09-27T07:35:45.463Z,2.83
2018-09-27T07:38:15.024Z,2.30
2018-09-27T07:40:44.206Z,2.80
2018-09-27T07:43:13.502Z,3.50
2018-09-27T07:45:42.900Z,4.23
2018-09-27T07:48:12.090Z,2.93
2018-09-27T07:50:41.614Z,3.40
2018-09-27T07:53:11.080Z,2.53
2018-09-27T07:55:40.895Z,2.60
2018-09-27T07:58:10.769Z,2.30
2018-09-27T08:00:40.535Z,2.60
2018-09-27T08:03:10.144Z,2.60
2018-09-27T08:05:39.741Z,2.13
2018-09-27T08:08:09.464Z,1.70
2018-09-27T08:10:38.933Z,2.00
2018-09-27T08:13:09.280Z,2.67
2018-09-27T08:15:39.164Z,5.17
2018-09-27T08:18:08.676Z,3.27
2018-09-27T08:20:38.312Z,15.80
2018-09-27T08:23:07.513Z,15.13
2018-09-27T08:25:36.948Z,11.83
2018-09-27T08:28:06.501Z,20.40
2018-09-27T08:30:35.960Z,19.30
2018-09-27T08:33:05.416Z,15.60
2018-09-27T08:35:34.917Z,7.33
2018-09-27T08:38:04.538Z,2.93
2018-09-27T08:40:33.953Z,2.87
2018-09-27T08:43:03.152Z,2.40
2018-09-27T08:45:32.740Z,2.50
2018-09-27T08:48:01.975Z,2.97
2018-09-27T08:50:33.221Z,2.37
2018-09-27T08:53:02.668Z,2.77
2018-09-27T08:55:32.151Z,3.60
2018-09-27T08:58:02.576Z,4.90
2018-09-27T09:00:32.125Z,3.27
2018-09-27T09:03:01.555Z,2.40
2018-09-27T09:05:30.929Z,3.00
2018-09-27T09:08:00.498Z,4.43
2018-09-27T09:10:29.740Z,24.60
2018-09-27T09:12:59.311Z,19.00
2018-09-27T09:15:28.954Z,7.90
2018-09-27T09:17:58.530Z,16.93
2018-09-27T09:20:27.732Z,12.77
2018-09-27T09:22:56.857Z,8.87
2018-09-27T09:25:26.365Z,9.10
2018-09-27T09:27:55.768Z,8.83
2018-09-27T09:30:25.418Z,5.40
2018-09-27T09:32:54.671Z,5.97
2018-09-27T09:35:24.225Z,4.90
2018-09-27T09:37:53.375Z,5.03
2018-09-27T09:40:23.016Z,3.90
2018-09-27T09:42:52.390Z,4.57
2018-09-27T09:45:21.659Z,4.90
2018-09-27T09:47:51.335Z,7.47
2018-09-27T09:50:21.217Z,3.80
2018-09-27T09:52:50.439Z,2.50
2018-09-27T09:55:19.871Z,2.50
2018-09-27T09:57:49.270Z,2.20
2018-09-27T10:00:18.633Z,2.20
2018-09-27T10:02:47.708Z,2.27
2018-09-27T10:05:18.373Z,1.97
2018-09-27T10:07:47.763Z,2.20
2018-09-27T10:10:17.757Z,2.00
2018-09-27T10:12:46.955Z,1.73
2018-09-27T10:15:16.218Z,2.03
2018-09-27T10:17:45.529Z,1.87
2018-09-27T10:20:15.182Z,1.87
2018-09-27T10:22:44.775Z,1.80
2018-09-27T10:25:14.273Z,2.40
2018-09-27T10:27:43.619Z,2.20
2018-09-27T10:30:13.743Z,1.97
2018-09-27T10:32:43.413Z,2.37
2018-09-27T10:35:12.817Z,1.67
2018-09-27T10:37:42.269Z,2.50
2018-09-27T10:40:11.659Z,1.60
2018-09-27T10:42:41.536Z,1.57
2018-09-27T10:45:10.966Z,1.80
2018-09-27T10:47:40.699Z,1.55
2018-09-27T10:50:10.041Z,1.90
2018-09-27T10:52:39.879Z,1.10
2018-09-27T10:55:10.016Z,1.30
2018-09-27T10:57:39.748Z,1.60
2018-09-27T11:00:08.913Z,1.62
2018-09-27T11:02:38.552Z,0.90
2018-09-27T11:05:08.120Z,1.50
2018-09-27T11:07:38.112Z,1.10
2018-09-27T11:10:13.058Z,1.60
2018-09-27T11:12:43.655Z,1.50
2018-09-27T11:15:18.589Z,1.22
2018-09-27T11:17:49.164Z,1.32
2018-09-27T11:20:18.608Z,1.60
2018-09-27T11:22:48.240Z,1.40
2018-09-27T11:25:17.636Z,1.50
2018-09-27T11:27:47.184Z,1.70
2018-09-27T11:30:22.540Z,1.65
2018-09-27T11:32:52.255Z,1.70
2018-09-27T11:35:26.054Z,2.50
2018-09-27T11:37:55.087Z,3.25
2018-09-27T11:40:24.545Z,2.90
2018-09-27T11:42:54.015Z,3.20
2018-09-27T11:45:23.420Z,3.40
2018-09-27T11:47:52.902Z,3.12
2018-09-27T11:50:22.607Z,3.10
2018-09-27T11:52:52.180Z,2.00
2018-09-27T11:55:21.330Z,1.92
2018-09-27T11:57:50.855Z,2.30
2018-09-27T12:00:20.510Z,1.98
2018-09-27T12:02:49.725Z,2.20
2018-09-27T12:05:19.208Z,5.37
2018-09-27T12:07:48.717Z,4.87
2018-09-27T12:10:20.971Z,2.95
2018-09-27T12:12:50.287Z,2.67
2018-09-27T12:15:19.546Z,2.60
2018-09-27T12:17:48.875Z,2.40
2018-09-27T12:20:19.781Z,2.35
2018-09-27T12:22:49.102Z,2.55
2018-09-27T12:25:18.553Z,2.37
2018-09-27T12:27:47.742Z,2.37
2018-09-27T12:30:17.700Z,2.17
2018-09-27T12:32:46.771Z,2.55
2018-09-27T12:35:16.168Z,2.70
2018-09-27T12:37:45.525Z,2.58
2018-09-27T12:40:15.728Z,2.25
2018-09-27T12:42:45.228Z,2.52
2018-09-27T12:45:14.763Z,2.20
2018-09-27T12:47:44.752Z,2.58
2018-09-27T12:50:16.120Z,2.45
2018-09-27T12:52:45.791Z,2.10
2018-09-27T12:55:15.119Z,2.22
2018-09-27T12:57:44.664Z,2.02
2018-09-27T13:00:15.493Z,2.30
2018-09-27T13:02:45.128Z,2.00
2018-09-27T13:05:14.297Z,1.98
2018-09-27T13:07:45.837Z,2.05
2018-09-27T13:10:17.131Z,2.02
2018-09-27T13:12:46.875Z,2.40
2018-09-27T13:15:16.334Z,2.27
2018-09-27T13:17:45.688Z,2.33
2018-09-27T13:20:18.199Z,2.50
2018-09-27T13:22:47.556Z,2.92
2018-09-27T13:25:17.254Z,2.80
2018-09-27T13:27:46.614Z,2.77
2018-09-27T13:30:17.562Z,2.70
2018-09-27T13:32:46.820Z,2.30
2018-09-27T13:35:16.372Z,2.77
2018-09-27T13:37:45.482Z,2.90
2018-09-27T13:40:16.949Z,2.52
2018-09-27T13:42:46.059Z,2.77
2018-09-27T13:45:15.284Z,2.70
2018-09-27T13:47:44.941Z,2.73
2018-09-27T13:50:14.788Z,2.90
2018-09-27T13:52:47.145Z,2.80
2018-09-27T13:55:16.686Z,3.00
2018-09-27T13:57:47.727Z,2.60
2018-09-27T14:00:17.024Z,3.50
2018-09-27T14:02:46.387Z,3.20
2018-09-27T14:05:15.707Z,3.33
2018-09-27T14:07:44.765Z,3.20
2018-09-27T14:10:14.417Z,4.30
2018-09-27T14:12:43.920Z,3.20
2018-09-27T14:15:13.302Z,5.53
2018-09-27T14:17:42.537Z,3.40
2018-09-27T14:20:12.253Z,3.13
2018-09-27T14:22:41.928Z,2.80
2018-09-27T14:25:11.979Z,3.43
2018-09-27T14:27:41.714Z,4.63
2018-09-27T14:30:12.098Z,4.43
2018-09-27T14:32:42.365Z,9.40
2018-09-27T14:35:11.557Z,13.33
2018-09-27T14:37:40.894Z,7.37
2018-09-27T14:40:10.843Z,4.93
2018-09-27T14:42:40.659Z,7.17
2018-09-27T14:45:10.323Z,6.50
2018-09-27T14:47:42.785Z,4.67
2018-09-27T14:50:14.626Z,4.13
2018-09-27T14:52:43.813Z,4.57
2018-09-27T14:55:13.029Z,3.40
2018-09-27T14:57:42.519Z,3.30
2018-09-27T15:00:12.201Z,3.70
2018-09-27T15:02:42.322Z,5.33
2018-09-27T15:05:11.392Z,6.17
2018-09-27T15:07:40.615Z,4.03
2018-09-27T15:10:10.315Z,3.67
2018-09-27T15:12:39.947Z,4.47
2018-09-27T15:15:09.545Z,4.07
2018-09-27T15:17:39.108Z,3.63
2018-09-27T15:20:08.603Z,4.03
2018-09-27T15:22:39.571Z,4.13
2018-09-27T15:25:08.885Z,4.30
2018-09-27T15:27:38.800Z,4.10
2018-09-27T15:30:08.096Z,4.27
2018-09-27T15:32:37.841Z,4.50
2018-09-27T15:35:07.387Z,4.90
2018-09-27T15:37:37.603Z,4.87
2018-09-27T15:40:07.209Z,4.70
2018-09-27T15:42:36.581Z,4.80
2018-09-27T15:45:06.032Z,4.70
2018-09-27T15:47:35.484Z,5.53
2018-09-27T15:50:04.964Z,6.17
2018-09-27T15:52:34.735Z,11.90
2018-09-27T15:55:04.324Z,9.93
2018-09-27T15:57:33.668Z,9.77
2018-09-27T16:00:03.942Z,7.80
2018-09-27T16:02:33.104Z,5.83
2018-09-27T16:05:02.715Z,5.67
2018-09-27T16:07:33.074Z,6.17
2018-09-27T16:10:02.436Z,5.53
2018-09-27T16:12:32.020Z,5.67
2018-09-27T16:15:01.137Z,6.30
2018-09-27T16:17:30.487Z,6.23
2018-09-27T16:19:59.780Z,9.13
2018-09-27T16:22:29.365Z,5.93
2018-09-27T16:24:58.634Z,6.30
2018-09-27T16:27:27.829Z,5.80
2018-09-27T16:29:57.144Z,6.77
2018-09-27T16:32:27.024Z,13.90
2018-09-27T16:34:56.118Z,7.83
2018-09-27T16:37:25.420Z,7.70
2018-09-27T16:39:55.019Z,8.37
2018-09-27T16:42:25.418Z,8.83
2018-09-27T16:44:55.076Z,22.03
2018-09-27T16:47:25.243Z,29.83
2018-09-27T16:49:54.991Z,22.37
2018-09-27T16:52:26.184Z,21.47
2018-09-27T16:54:55.928Z,18.40
2018-09-27T16:57:25.228Z,18.50
2018-09-27T16:59:54.685Z,23.23
2018-09-27T17:02:24.611Z,23.90
2018-09-27T17:04:54.793Z,17.47
2018-09-27T17:07:23.876Z,18.67
2018-09-27T17:09:53.567Z,25.30
2018-09-27T17:12:23.073Z,21.10
2018-09-27T17:14:52.641Z,22.10
2018-09-27T17:17:22.333Z,23.20
2018-09-27T17:19:56.782Z,23.73
2018-09-27T17:22:27.339Z,20.53
2018-09-27T17:24:56.806Z,20.60
2018-09-27T17:27:26.461Z,19.17
2018-09-27T17:29:55.899Z,18.07
2018-09-27T17:32:25.173Z,21.83
2018-09-27T17:34:54.357Z,29.57
2018-09-27T17:37:23.898Z,31.73
2018-09-27T17:39:53.510Z,30.33
2018-09-27T17:42:23.690Z,31.87
2018-09-27T17:44:52.897Z,32.10
2018-09-27T17:47:21.900Z,36.70
2018-09-27T17:49:51.427Z,37.50
2018-09-27T17:52:21.048Z,41.87
2018-09-27T17:54:50.791Z,44.13
2018-09-27T17:57:23.389Z,42.07
2018-09-27T17:59:55.121Z,45.33
2018-09-27T18:02:25.033Z,47.50
2018-09-27T18:04:54.964Z,43.83
2018-09-27T18:07:24.372Z,43.00
2018-09-27T18:09:53.647Z,41.30
2018-09-27T18:12:23.406Z,32.43
2018-09-27T18:14:53.688Z,33.20
2018-09-27T18:17:22.853Z,35.87
2018-09-27T18:19:52.117Z,39.67
2018-09-27T18:22:21.669Z,38.97
2018-09-27T18:24:51.289Z,39.90
2018-09-27T18:27:20.804Z,44.97
2018-09-27T18:29:49.832Z,53.00
2018-09-27T18:32:19.037Z,42.90
2018-09-27T18:34:48.308Z,42.47
2018-09-27T18:37:17.745Z,44.20
2018-09-27T18:39:47.060Z,35.07
2018-09-27T18:42:16.273Z,37.17
2018-09-27T18:44:45.689Z,36.37
2018-09-27T18:47:15.189Z,32.40
2018-09-27T18:49:44.706Z,33.47
2018-09-27T18:52:14.155Z,30.37
2018-09-27T18:54:43.708Z,32.07
2018-09-27T18:57:12.980Z,31.40
2018-09-27T18:59:42.628Z,29.13
2018-09-27T19:02:12.008Z,28.37
2018-09-27T19:04:41.336Z,27.77
2018-09-27T19:07:11.136Z,29.13
2018-09-27T19:09:41.316Z,32.40
2018-09-27T19:12:10.535Z,31.43
2018-09-27T19:14:39.775Z,38.00
2018-09-27T19:17:08.970Z,35.70
2018-09-27T19:19:38.273Z,39.50
2018-09-27T19:22:07.847Z,35.87
2018-09-27T19:24:37.031Z,37.87
2018-09-27T19:27:06.321Z,36.23
2018-09-27T19:29:35.759Z,39.20
2018-09-27T19:32:04.884Z,39.83
2018-09-27T19:34:34.091Z,42.33
2018-09-27T19:37:03.359Z,48.53
2018-09-27T19:39:33.708Z,37.10
2018-09-27T19:42:02.886Z,38.13
2018-09-27T19:44:32.903Z,34.97
2018-09-27T19:47:03.101Z,30.63
2018-09-27T19:49:32.740Z,30.57
2018-09-27T19:52:03.711Z,33.50
2018-09-27T19:54:32.830Z,33.87
2018-09-27T19:57:02.292Z,32.43
2018-09-27T19:59:31.724Z,30.63
2018-09-27T20:02:00.993Z,28.27
2018-09-27T20:04:30.686Z,28.00
2018-09-27T20:07:00.017Z,26.47
2018-09-27T20:09:29.349Z,25.73
2018-09-27T20:11:58.743Z,28.80
2018-09-27T20:14:28.152Z,31.90
2018-09-27T20:16:57.505Z,36.17
2018-09-27T20:19:27.282Z,35.10
2018-09-27T20:21:56.427Z,36.57
2018-09-27T20:24:26.025Z,35.70
2018-09-27T20:26:55.824Z,41.27
2018-09-27T20:29:25.558Z,45.53
2018-09-27T20:31:54.875Z,44.90
2018-09-27T20:34:24.543Z,39.33
2018-09-27T20:36:54.122Z,35.23
2018-09-27T20:39:25.525Z,37.50
2018-09-27T20:41:55.008Z,35.93
2018-09-27T20:44:24.617Z,33.33
2018-09-27T20:46:54.518Z,32.70
2018-09-27T20:49:24.121Z,30.90
2018-09-27T20:51:53.383Z,31.77
2018-09-27T20:54:22.600Z,30.70
2018-09-27T20:56:52.340Z,27.30
2018-09-27T20:59:21.731Z,29.40
2018-09-27T21:01:51.232Z,30.40
2018-09-27T21:04:20.829Z,30.67
2018-09-27T21:06:50.147Z,28.03
2018-09-27T21:09:19.395Z,27.73
2018-09-27T21:11:48.491Z,29.33
2018-09-27T21:14:17.892Z,30.57
2018-09-27T21:16:47.513Z,29.57
2018-09-27T21:19:16.851Z,29.70
2018-09-27T21:21:46.038Z,32.37
2018-09-27T21:24:15.976Z,32.73
2018-09-27T21:26:45.436Z,34.53
2018-09-27T21:29:14.613Z,37.37
2018-09-27T21:31:44.530Z,34.33
2018-09-27T21:34:13.807Z,35.17
2018-09-27T21:36:42.913Z,33.30
2018-09-27T21:39:12.063Z,32.70
2018-09-27T21:41:41.264Z,33.47
2018-09-27T21:44:10.716Z,32.00
2018-09-27T21:46:40.112Z,35.20
2018-09-27T21:49:09.280Z,35.67
2018-09-27T21:51:39.139Z,36.07
2018-09-27T21:54:08.948Z,35.87
2018-09-27T21:56:38.175Z,35.63
2018-09-27T21:59:07.134Z,35.17
2018-09-27T22:01:36.648Z,33.90
2018-09-27T22:04:06.239Z,31.63
2018-09-27T22:06:35.477Z,31.67
2018-09-27T22:09:06.970Z,32.33
2018-09-27T22:11:35.932Z,29.67
2018-09-27T22:14:05.240Z,28.47
2018-09-27T22:16:34.488Z,29.73
2018-09-27T22:19:04.048Z,54.80
2018-09-27T22:21:33.068Z,41.37
2018-09-27T22:24:02.598Z,45.43
2018-09-27T22:26:31.868Z,29.97
2018-09-27T22:29:01.186Z,35.37
2018-09-27T22:31:30.707Z,32.20
2018-09-27T22:33:59.868Z,33.00
2018-09-27T22:36:29.331Z,31.20
2018-09-27T22:38:59.335Z,33.97
2018-09-27T22:41:28.525Z,32.50
2018-09-27T22:43:57.779Z,64.13
2018-09-27T22:46:26.947Z,83.27
2018-09-27T22:48:56.065Z,50.73
2018-09-27T22:51:25.324Z,41.47
2018-09-27T22:53:54.953Z,43.37
2018-09-27T22:56:23.975Z,40.37
2018-09-27T22:58:53.253Z,30.63
2018-09-27T23:01:22.399Z,28.77
2018-09-27T23:03:51.529Z,37.10
2018-09-27T23:06:20.756Z,32.50
2018-09-27T23:08:50.201Z,27.47
2018-09-27T23:11:19.491Z,27.00
2018-09-27T23:13:48.793Z,24.90
2018-09-27T23:16:18.148Z,23.77
2018-09-27T23:18:47.554Z,22.17
2018-09-27T23:21:16.930Z,22.10
2018-09-27T23:23:46.635Z,22.50
2018-09-27T23:26:15.968Z,25.63
2018-09-27T23:28:45.583Z,26.37
2018-09-27T23:31:14.872Z,28.73
2018-09-27T23:33:44.725Z,26.33
2018-09-27T23:36:14.072Z,25.70
2018-09-27T23:38:43.276Z,26.47
2018-09-27T23:41:12.372Z,23.50
2018-09-27T23:43:41.816Z,28.93
2018-09-27T23:46:11.881Z,30.33
2018-09-27T23:48:41.277Z,23.87
2018-09-27T23:51:10.696Z,19.97
2018-09-27T23:53:39.892Z,17.87
2018-09-27T23:56:09.504Z,15.00
2018-09-27T23:58:38.633Z,15.27
